sensor_id;sensor_type;location;lat;lon;timestamp;pressure;altitude;pressure_sealevel;temperature;humidity
48790;BME280;41718;51.980;5.734;2022-11-20T00:02:14;101238.41;;;-5.11;100.00
48790;BME280;41718;51.980;5.734;2022-11-20T00:07:16;101240.56;;;-5.05;100.00
48790;BME280;41718;51.980;5.734;2022-11-20T00:12:17;101220.16;;;-5.18;100.00
48790;BME280;41718;51.980;5.734;2022-11-20T00:17:19;101224.81;;;-5.13;100.00
48790;BME280;41718;51.980;5.734;2022-11-20T00:22:20;101223.44;;;-5.19;100.00
48790;BME280;41718;51.980;5.734;2022-11-20T00:27:22;101216.13;;;-5.26;100.00
48790;BME280;41718;51.980;5.734;2022-11-20T00:32:23;101222.06;;;-5.16;100.00
48790;BME280;41718;51.980;5.734;2022-11-20T00:37:25;101221.88;;;-5.48;100.00
48790;BME280;41718;51.980;5.734;2022-11-20T00:42:27;101212.94;;;-5.44;100.00
48790;BME280;41718;51.980;5.734;2022-11-20T00:47:28;101218.09;;;-5.43;100.00
48790;BME280;41718;51.980;5.734;2022-11-20T00:52:30;101225.91;;;-5.50;100.00
48790;BME280;41718;51.980;5.734;2022-11-20T00:57:31;101222.13;;;-5.55;100.00
48790;BME280;41718;51.980;5.734;2022-11-20T01:02:32;101229.75;;;-5.64;100.00
48790;BME280;41718;51.980;5.734;2022-11-20T01:07:34;101215.66;;;-5.62;100.00
48790;BME280;41718;51.980;5.734;2022-11-20T01:12:36;101208.59;;;-5.66;100.00
48790;BME280;41718;51.980;5.734;2022-11-20T01:17:37;101205.22;;;-5.66;100.00
48790;BME280;41718;51.980;5.734;2022-11-20T01:22:38;101199.03;;;-5.60;100.00
48790;BME280;41718;51.980;5.734;2022-11-20T01:27:40;101191.88;;;-5.55;100.00
48790;BME280;41718;51.980;5.734;2022-11-20T01:32:42;101195.63;;;-5.70;100.00
48790;BME280;41718;51.980;5.734;2022-11-20T01:37:43;101171.22;;;-5.61;100.00
48790;BME280;41718;51.980;5.734;2022-11-20T01:42:47;101176.59;;;-5.56;100.00
48790;BME280;41718;51.980;5.734;2022-11-20T01:48:12;101190.06;;;-5.76;100.00
48790;BME280;41718;51.980;5.734;2022-11-20T01:53:16;101192.94;;;-5.82;100.00
48790;BME280;41718;51.980;5.734;2022-11-20T01:58:22;101195.69;;;-5.79;100.00
48790;BME280;41718;51.980;5.734;2022-11-20T02:03:27;101197.97;;;-5.92;100.00
48790;BME280;41718;51.980;5.734;2022-11-20T02:08:30;101189.91;;;-5.88;100.00
48790;BME280;41718;51.980;5.734;2022-11-20T02:13:32;101195.81;;;-5.98;100.00
48790;BME280;41718;51.980;5.734;2022-11-20T02:18:46;101182.22;;;-6.00;100.00
48790;BME280;41718;51.980;5.734;2022-11-20T02:29:10;101180.53;;;-6.09;100.00
48790;BME280;41718;51.980;5.734;2022-11-20T02:34:11;101187.47;;;-6.07;100.00
48790;BME280;41718;51.980;5.734;2022-11-20T02:39:15;101173.28;;;-5.96;100.00
48790;BME280;41718;51.980;5.734;2022-11-20T02:44:18;101170.69;;;-6.17;100.00
48790;BME280;41718;51.980;5.734;2022-11-20T02:49:19;101169.81;;;-6.17;100.00
48790;BME280;41718;51.980;5.734;2022-11-20T02:54:22;101159.00;;;-6.16;100.00
48790;BME280;41718;51.980;5.734;2022-11-20T02:59:23;101160.00;;;-6.14;100.00
48790;BME280;41718;51.980;5.734;2022-11-20T03:04:25;101155.91;;;-6.32;100.00
48790;BME280;41718;51.980;5.734;2022-11-20T03:09:26;101150.69;;;-6.15;100.00
48790;BME280;41718;51.980;5.734;2022-11-20T03:14:28;101152.03;;;-6.19;100.00
48790;BME280;41718;51.980;5.734;2022-11-20T03:19:29;101147.78;;;-6.20;100.00
48790;BME280;41718;51.980;5.734;2022-11-20T03:24:31;101145.84;;;-6.32;100.00
48790;BME280;41718;51.980;5.734;2022-11-20T03:29:32;101148.44;;;-6.41;100.00
48790;BME280;41718;51.980;5.734;2022-11-20T03:34:34;101147.13;;;-6.27;100.00
48790;BME280;41718;51.980;5.734;2022-11-20T03:39:35;101147.53;;;-6.42;100.00
48790;BME280;41718;51.980;5.734;2022-11-20T03:44:37;101135.41;;;-6.27;100.00
48790;BME280;41718;51.980;5.734;2022-11-20T03:49:38;101138.25;;;-6.43;100.00
48790;BME280;41718;51.980;5.734;2022-11-20T03:54:39;101133.72;;;-6.36;100.00
48790;BME280;41718;51.980;5.734;2022-11-20T03:59:41;101140.34;;;-6.47;100.00
48790;BME280;41718;51.980;5.734;2022-11-20T04:04:42;101119.63;;;-6.45;100.00
48790;BME280;41718;51.980;5.734;2022-11-20T04:09:44;101123.03;;;-6.44;100.00
48790;BME280;41718;51.980;5.734;2022-11-20T04:14:45;101116.84;;;-6.48;100.00
48790;BME280;41718;51.980;5.734;2022-11-20T04:19:47;101119.97;;;-6.50;100.00
48790;BME280;41718;51.980;5.734;2022-11-20T04:24:48;101117.19;;;-6.53;100.00
48790;BME280;41718;51.980;5.734;2022-11-20T04:29:50;101120.56;;;-6.53;100.00
48790;BME280;41718;51.980;5.734;2022-11-20T04:34:51;101119.16;;;-6.59;100.00
48790;BME280;41718;51.980;5.734;2022-11-20T04:39:52;101120.56;;;-6.63;100.00
48790;BME280;41718;51.980;5.734;2022-11-20T04:44:54;101115.13;;;-6.68;100.00
48790;BME280;41718;51.980;5.734;2022-11-20T04:49:56;101112.94;;;-6.73;100.00
48790;BME280;41718;51.980;5.734;2022-11-20T04:54:57;101104.53;;;-6.74;100.00
48790;BME280;41718;51.980;5.734;2022-11-20T04:59:59;101095.25;;;-6.64;100.00
48790;BME280;41718;51.980;5.734;2022-11-20T05:05:01;101094.81;;;-6.79;100.00
48790;BME280;41718;51.980;5.734;2022-11-20T05:10:02;101088.50;;;-6.84;100.00
48790;BME280;41718;51.980;5.734;2022-11-20T05:15:04;101079.31;;;-6.84;100.00
48790;BME280;41718;51.980;5.734;2022-11-20T05:20:06;101078.78;;;-6.90;100.00
48790;BME280;41718;51.980;5.734;2022-11-20T05:25:08;101086.28;;;-7.00;100.00
48790;BME280;41718;51.980;5.734;2022-11-20T05:30:10;101081.38;;;-6.99;100.00
48790;BME280;41718;51.980;5.734;2022-11-20T05:35:12;101074.22;;;-6.94;100.00
48790;BME280;41718;51.980;5.734;2022-11-20T05:40:13;101082.47;;;-7.24;100.00
48790;BME280;41718;51.980;5.734;2022-11-20T05:45:14;101069.44;;;-7.01;100.00
48790;BME280;41718;51.980;5.734;2022-11-20T05:50:16;101061.94;;;-7.10;100.00
48790;BME280;41718;51.980;5.734;2022-11-20T05:55:17;101066.25;;;-7.09;100.00
48790;BME280;41718;51.980;5.734;2022-11-20T06:00:19;101065.78;;;-7.24;100.00
48790;BME280;41718;51.980;5.734;2022-11-20T06:05:20;101085.91;;;-7.32;100.00
48790;BME280;41718;51.980;5.734;2022-11-20T06:10:22;101100.94;;;-7.42;100.00
48790;BME280;41718;51.980;5.734;2022-11-20T06:15:23;101095.78;;;-7.25;100.00
48790;BME280;41718;51.980;5.734;2022-11-20T06:20:25;101103.72;;;-7.21;100.00
48790;BME280;41718;51.980;5.734;2022-11-20T06:25:26;101107.47;;;-7.26;100.00
48790;BME280;41718;51.980;5.734;2022-11-20T06:30:27;101108.75;;;-7.21;100.00
48790;BME280;41718;51.980;5.734;2022-11-20T06:35:29;101108.53;;;-7.32;100.00
48790;BME280;41718;51.980;5.734;2022-11-20T06:40:30;101118.59;;;-7.32;100.00
48790;BME280;41718;51.980;5.734;2022-11-20T06:45:31;101119.28;;;-7.25;100.00
48790;BME280;41718;51.980;5.734;2022-11-20T06:50:33;101120.75;;;-7.27;100.00
48790;BME280;41718;51.980;5.734;2022-11-20T06:55:34;101112.28;;;-7.18;100.00
48790;BME280;41718;51.980;5.734;2022-11-20T07:00:36;101114.19;;;-7.35;100.00
48790;BME280;41718;51.980;5.734;2022-11-20T07:05:38;101110.03;;;-7.34;100.00
48790;BME280;41718;51.980;5.734;2022-11-20T07:10:39;101112.88;;;-7.21;100.00
48790;BME280;41718;51.980;5.734;2022-11-20T07:15:41;101113.31;;;-7.16;100.00
48790;BME280;41718;51.980;5.734;2022-11-20T07:20:42;101097.34;;;-7.17;100.00
48790;BME280;41718;51.980;5.734;2022-11-20T07:25:44;101095.84;;;-7.15;100.00
48790;BME280;41718;51.980;5.734;2022-11-20T07:30:52;101096.34;;;-7.19;100.00
48790;BME280;41718;51.980;5.734;2022-11-20T07:35:54;101082.41;;;-7.15;100.00
48790;BME280;41718;51.980;5.734;2022-11-20T07:40:56;101073.81;;;-6.99;100.00
48790;BME280;41718;51.980;5.734;2022-11-20T07:45:59;101081.53;;;-6.97;100.00
48790;BME280;41718;51.980;5.734;2022-11-20T07:51:00;101076.22;;;-6.71;100.00
48790;BME280;41718;51.980;5.734;2022-11-20T07:56:02;101072.13;;;-6.60;100.00
48790;BME280;41718;51.980;5.734;2022-11-20T08:01:05;101074.28;;;-6.55;100.00
48790;BME280;41718;51.980;5.734;2022-11-20T08:06:07;101074.28;;;-6.16;100.00
48790;BME280;41718;51.980;5.734;2022-11-20T08:11:09;101082.38;;;-5.99;100.00
48790;BME280;41718;51.980;5.734;2022-11-20T08:16:29;101071.94;;;-5.83;100.00
48790;BME280;41718;51.980;5.734;2022-11-20T08:21:31;101077.50;;;-5.67;100.00
48790;BME280;41718;51.980;5.734;2022-11-20T08:26:39;101073.19;;;-5.58;100.00
48790;BME280;41718;51.980;5.734;2022-11-20T08:31:40;101060.69;;;-5.26;100.00
48790;BME280;41718;51.980;5.734;2022-11-20T08:36:42;101061.50;;;-4.95;100.00
48790;BME280;41718;51.980;5.734;2022-11-20T08:41:43;101063.31;;;-4.72;100.00
48790;BME280;41718;51.980;5.734;2022-11-20T08:46:45;101055.03;;;-4.27;100.00
48790;BME280;41718;51.980;5.734;2022-11-20T08:51:47;101052.78;;;-4.02;100.00
48790;BME280;41718;51.980;5.734;2022-11-20T08:56:52;101046.50;;;-3.74;100.00
48790;BME280;41718;51.980;5.734;2022-11-20T09:01:54;101035.78;;;-3.48;100.00
48790;BME280;41718;51.980;5.734;2022-11-20T09:06:55;101031.84;;;-3.32;100.00
48790;BME280;41718;51.980;5.734;2022-11-20T09:11:57;101016.00;;;-3.30;100.00
48790;BME280;41718;51.980;5.734;2022-11-20T09:16:59;101010.41;;;-3.14;100.00
48790;BME280;41718;51.980;5.734;2022-11-20T09:22:00;101000.94;;;-2.93;100.00
48790;BME280;41718;51.980;5.734;2022-11-20T09:27:03;100997.09;;;-2.88;100.00
48790;BME280;41718;51.980;5.734;2022-11-20T09:32:05;100989.13;;;-2.69;100.00
48790;BME280;41718;51.980;5.734;2022-11-20T09:37:07;100976.53;;;-2.56;100.00
48790;BME280;41718;51.980;5.734;2022-11-20T09:42:28;100984.78;;;-2.47;100.00
48790;BME280;41718;51.980;5.734;2022-11-20T09:47:47;100980.44;;;-2.36;100.00
48790;BME280;41718;51.980;5.734;2022-11-20T09:52:57;100971.06;;;-2.25;100.00
48790;BME280;41718;51.980;5.734;2022-11-20T09:58:01;100979.25;;;-2.16;100.00
48790;BME280;41718;51.980;5.734;2022-11-20T10:03:29;100980.25;;;-2.14;100.00
48790;BME280;41718;51.980;5.734;2022-11-20T10:08:43;100970.94;;;-2.02;100.00
48790;BME280;41718;51.980;5.734;2022-11-20T10:14:01;100956.81;;;-1.98;100.00
48790;BME280;41718;51.980;5.734;2022-11-20T10:24:56;100931.50;;;-1.72;100.00
48790;BME280;41718;51.980;5.734;2022-11-20T10:30:12;100922.47;;;-1.55;100.00
48790;BME280;41718;51.980;5.734;2022-11-20T10:35:39;100915.75;;;-1.41;100.00
48790;BME280;41718;51.980;5.734;2022-11-20T10:40:49;100912.28;;;-1.15;100.00
48790;BME280;41718;51.980;5.734;2022-11-20T10:46:01;100904.75;;;-1.14;100.00
48790;BME280;41718;51.980;5.734;2022-11-20T10:56:27;100882.25;;;-0.81;100.00
48790;BME280;41718;51.980;5.734;2022-11-20T11:01:40;100881.38;;;-0.82;100.00
48790;BME280;41718;51.980;5.734;2022-11-20T11:06:47;100869.09;;;-0.61;100.00
48790;BME280;41718;51.980;5.734;2022-11-20T11:11:50;100856.91;;;-0.51;100.00
48790;BME280;41718;51.980;5.734;2022-11-20T11:16:54;100847.38;;;-0.41;100.00
48790;BME280;41718;51.980;5.734;2022-11-20T11:21:56;100836.81;;;-0.19;100.00
48790;BME280;41718;51.980;5.734;2022-11-20T11:27:00;100831.47;;;-0.09;100.00
48790;BME280;41718;51.980;5.734;2022-11-20T11:37:19;100801.38;;;0.14;100.00
48790;BME280;41718;51.980;5.734;2022-11-20T11:42:22;100795.94;;;0.08;100.00
48790;BME280;41718;51.980;5.734;2022-11-20T11:47:25;100790.06;;;0.23;100.00
48790;BME280;41718;51.980;5.734;2022-11-20T11:52:28;100785.19;;;0.28;100.00
48790;BME280;41718;51.980;5.734;2022-11-20T11:57:43;100781.00;;;0.29;100.00
48790;BME280;41718;51.980;5.734;2022-11-20T12:08:20;100765.03;;;0.31;100.00
48790;BME280;41718;51.980;5.734;2022-11-20T12:13:43;100756.22;;;0.41;100.00
48790;BME280;41718;51.980;5.734;2022-11-20T12:18:50;100736.78;;;0.58;100.00
48790;BME280;41718;51.980;5.734;2022-11-20T12:29:40;100734.78;;;0.68;100.00
48790;BME280;41718;51.980;5.734;2022-11-20T12:34:56;100715.19;;;0.67;100.00
48790;BME280;41718;51.980;5.734;2022-11-20T12:45:42;100702.56;;;0.69;100.00
48790;BME280;41718;51.980;5.734;2022-11-20T12:56:35;100708.66;;;0.56;100.00
48790;BME280;41718;51.980;5.734;2022-11-20T13:06:51;100664.63;;;0.57;100.00
48790;BME280;41718;51.980;5.734;2022-11-20T13:12:13;100645.06;;;0.56;100.00
48790;BME280;41718;51.980;5.734;2022-11-20T13:22:55;100618.66;;;0.70;100.00
48790;BME280;41718;51.980;5.734;2022-11-20T13:28:00;100604.63;;;0.78;100.00
48790;BME280;41718;51.980;5.734;2022-11-20T13:33:07;100603.34;;;0.87;100.00
48790;BME280;41718;51.980;5.734;2022-11-20T13:38:14;100592.59;;;0.92;100.00
48790;BME280;41718;51.980;5.734;2022-11-20T13:43:36;100581.72;;;0.96;100.00
48790;BME280;41718;51.980;5.734;2022-11-20T13:48:43;100582.63;;;0.97;100.00
48790;BME280;41718;51.980;5.734;2022-11-20T13:59:40;100525.94;;;1.01;100.00
48790;BME280;41718;51.980;5.734;2022-11-20T14:04:47;100514.88;;;1.00;100.00
48790;BME280;41718;51.980;5.734;2022-11-20T14:09:52;100511.75;;;1.06;100.00
48790;BME280;41718;51.980;5.734;2022-11-20T14:14:54;100504.09;;;1.06;100.00
48790;BME280;41718;51.980;5.734;2022-11-20T14:20:02;100492.63;;;1.14;100.00
48790;BME280;41718;51.980;5.734;2022-11-20T14:30:16;100512.31;;;1.18;100.00
48790;BME280;41718;51.980;5.734;2022-11-20T14:35:28;100474.91;;;1.17;100.00
48790;BME280;41718;51.980;5.734;2022-11-20T14:40:32;100468.03;;;1.15;100.00
48790;BME280;41718;51.980;5.734;2022-11-20T14:45:37;100461.25;;;1.15;100.00
48790;BME280;41718;51.980;5.734;2022-11-20T14:50:39;100448.50;;;1.15;100.00
48790;BME280;41718;51.980;5.734;2022-11-20T14:55:41;100429.00;;;1.16;100.00
48790;BME280;41718;51.980;5.734;2022-11-20T15:00:59;100416.41;;;1.19;100.00
48790;BME280;41718;51.980;5.734;2022-11-20T15:06:02;100407.97;;;1.20;100.00
48790;BME280;41718;51.980;5.734;2022-11-20T15:11:17;100396.16;;;1.22;100.00
48790;BME280;41718;51.980;5.734;2022-11-20T15:16:21;100387.72;;;1.23;100.00
48790;BME280;41718;51.980;5.734;2022-11-20T15:21:23;100377.69;;;1.26;100.00
48790;BME280;41718;51.980;5.734;2022-11-20T15:26:26;100374.38;;;1.28;100.00
48790;BME280;41718;51.980;5.734;2022-11-20T15:31:29;100368.63;;;1.32;100.00
48790;BME280;41718;51.980;5.734;2022-11-20T15:36:30;100372.78;;;1.30;100.00
48790;BME280;41718;51.980;5.734;2022-11-20T15:41:31;100364.50;;;1.36;100.00
48790;BME280;41718;51.980;5.734;2022-11-20T15:46:37;100351.78;;;1.36;100.00
48790;BME280;41718;51.980;5.734;2022-11-20T15:51:43;100344.34;;;1.41;100.00
48790;BME280;41718;51.980;5.734;2022-11-20T15:56:46;100331.59;;;1.41;100.00
48790;BME280;41718;51.980;5.734;2022-11-20T16:01:48;100313.97;;;1.45;100.00
48790;BME280;41718;51.980;5.734;2022-11-20T16:06:50;100287.59;;;1.45;100.00
48790;BME280;41718;51.980;5.734;2022-11-20T16:11:51;100268.47;;;1.54;100.00
48790;BME280;41718;51.980;5.734;2022-11-20T16:16:53;100252.44;;;1.57;100.00
48790;BME280;41718;51.980;5.734;2022-11-20T16:21:57;100228.94;;;1.64;100.00
48790;BME280;41718;51.980;5.734;2022-11-20T16:27:03;100218.28;;;1.74;100.00
48790;BME280;41718;51.980;5.734;2022-11-20T16:32:04;100217.56;;;1.77;100.00
48790;BME280;41718;51.980;5.734;2022-11-20T16:37:07;100203.00;;;1.74;100.00
48790;BME280;41718;51.980;5.734;2022-11-20T16:42:10;100186.72;;;1.71;100.00
48790;BME280;41718;51.980;5.734;2022-11-20T16:47:12;100188.50;;;1.73;100.00
48790;BME280;41718;51.980;5.734;2022-11-20T16:52:13;100176.63;;;1.74;100.00
48790;BME280;41718;51.980;5.734;2022-11-20T16:57:15;100165.56;;;1.73;100.00
48790;BME280;41718;51.980;5.734;2022-11-20T17:02:16;100151.03;;;1.71;100.00
48790;BME280;41718;51.980;5.734;2022-11-20T17:07:18;100133.97;;;1.70;100.00
48790;BME280;41718;51.980;5.734;2022-11-20T17:12:20;100126.41;;;1.71;100.00
48790;BME280;41718;51.980;5.734;2022-11-20T17:17:21;100106.06;;;1.73;100.00
48790;BME280;41718;51.980;5.734;2022-11-20T17:22:24;100096.75;;;1.73;100.00
48790;BME280;41718;51.980;5.734;2022-11-20T17:27:27;100097.59;;;1.74;100.00
48790;BME280;41718;51.980;5.734;2022-11-20T17:32:29;100095.09;;;1.75;100.00
48790;BME280;41718;51.980;5.734;2022-11-20T17:37:30;100092.56;;;1.75;100.00
48790;BME280;41718;51.980;5.734;2022-11-20T17:42:32;100085.72;;;1.74;100.00
48790;BME280;41718;51.980;5.734;2022-11-20T17:47:37;100076.47;;;1.76;100.00
48790;BME280;41718;51.980;5.734;2022-11-20T17:52:39;100081.66;;;1.79;100.00
48790;BME280;41718;51.980;5.734;2022-11-20T17:57:41;100068.22;;;1.83;100.00
48790;BME280;41718;51.980;5.734;2022-11-20T18:02:57;100053.84;;;1.85;100.00
48790;BME280;41718;51.980;5.734;2022-11-20T18:07:59;100060.75;;;1.88;100.00
48790;BME280;41718;51.980;5.734;2022-11-20T18:13:00;100066.72;;;1.89;100.00
48790;BME280;41718;51.980;5.734;2022-11-20T18:18:02;100058.31;;;1.91;100.00
48790;BME280;41718;51.980;5.734;2022-11-20T18:23:03;100058.31;;;1.91;100.00
48790;BME280;41718;51.980;5.734;2022-11-20T18:28:05;100056.56;;;1.90;100.00
48790;BME280;41718;51.980;5.734;2022-11-20T18:33:06;100058.22;;;1.88;100.00
48790;BME280;41718;51.980;5.734;2022-11-20T18:38:08;100067.19;;;1.78;100.00
48790;BME280;41718;51.980;5.734;2022-11-20T18:43:09;100071.25;;;1.73;100.00
48790;BME280;41718;51.980;5.734;2022-11-20T18:48:30;100069.28;;;1.66;100.00
48790;BME280;41718;51.980;5.734;2022-11-20T18:53:35;100064.81;;;1.61;100.00
48790;BME280;41718;51.980;5.734;2022-11-20T18:58:37;100070.59;;;1.56;100.00
48790;BME280;41718;51.980;5.734;2022-11-20T19:03:41;100071.28;;;1.52;100.00
48790;BME280;41718;51.980;5.734;2022-11-20T19:08:43;100073.84;;;1.52;100.00
48790;BME280;41718;51.980;5.734;2022-11-20T19:13:45;100082.31;;;1.51;100.00
48790;BME280;41718;51.980;5.734;2022-11-20T19:18:47;100088.16;;;1.49;100.00
48790;BME280;41718;51.980;5.734;2022-11-20T19:23:50;100093.13;;;1.46;100.00
48790;BME280;41718;51.980;5.734;2022-11-20T19:28:53;100088.97;;;1.48;100.00
48790;BME280;41718;51.980;5.734;2022-11-20T19:33:59;100093.06;;;1.44;100.00
48790;BME280;41718;51.980;5.734;2022-11-20T19:39:02;100088.66;;;1.40;100.00
48790;BME280;41718;51.980;5.734;2022-11-20T19:44:11;100079.41;;;1.42;100.00
48790;BME280;41718;51.980;5.734;2022-11-20T19:49:14;100060.44;;;1.36;100.00
48790;BME280;41718;51.980;5.734;2022-11-20T19:54:16;100064.69;;;1.35;100.00
48790;BME280;41718;51.980;5.734;2022-11-20T19:59:17;100069.72;;;1.33;100.00
48790;BME280;41718;51.980;5.734;2022-11-20T20:04:19;100078.22;;;1.34;100.00
48790;BME280;41718;51.980;5.734;2022-11-20T20:09:20;100083.16;;;1.29;100.00
48790;BME280;41718;51.980;5.734;2022-11-20T20:14:24;100096.84;;;1.31;100.00
48790;BME280;41718;51.980;5.734;2022-11-20T20:19:25;100100.19;;;1.30;100.00
48790;BME280;41718;51.980;5.734;2022-11-20T20:24:27;100090.97;;;1.34;100.00
48790;BME280;41718;51.980;5.734;2022-11-20T20:29:28;100104.47;;;1.31;100.00
48790;BME280;41718;51.980;5.734;2022-11-20T20:34:30;100117.22;;;1.31;100.00
48790;BME280;41718;51.980;5.734;2022-11-20T20:39:32;100117.06;;;1.28;100.00
48790;BME280;41718;51.980;5.734;2022-11-20T20:44:36;100126.34;;;1.26;100.00
48790;BME280;41718;51.980;5.734;2022-11-20T20:50:01;100126.28;;;1.25;100.00
48790;BME280;41718;51.980;5.734;2022-11-20T20:55:03;100127.22;;;1.27;100.00
48790;BME280;41718;51.980;5.734;2022-11-20T21:00:05;100128.84;;;1.25;100.00
48790;BME280;41718;51.980;5.734;2022-11-20T21:05:10;100131.31;;;1.23;100.00
48790;BME280;41718;51.980;5.734;2022-11-20T21:10:11;100132.13;;;1.22;100.00
48790;BME280;41718;51.980;5.734;2022-11-20T21:15:13;100138.06;;;1.23;100.00
48790;BME280;41718;51.980;5.734;2022-11-20T21:20:14;100141.56;;;1.25;100.00
48790;BME280;41718;51.980;5.734;2022-11-20T21:25:36;100144.19;;;1.26;100.00
48790;BME280;41718;51.980;5.734;2022-11-20T21:30:38;100150.09;;;1.25;100.00
48790;BME280;41718;51.980;5.734;2022-11-20T21:35:39;100151.25;;;1.33;100.00
48790;BME280;41718;51.980;5.734;2022-11-20T21:40:41;100148.47;;;1.27;100.00
48790;BME280;41718;51.980;5.734;2022-11-20T21:45:43;100149.53;;;1.32;100.00
48790;BME280;41718;51.980;5.734;2022-11-20T21:50:44;100150.63;;;1.39;100.00
48790;BME280;41718;51.980;5.734;2022-11-20T21:55:53;100152.88;;;1.31;100.00
48790;BME280;41718;51.980;5.734;2022-11-20T22:00:55;100160.56;;;1.33;100.00
48790;BME280;41718;51.980;5.734;2022-11-20T22:05:57;100159.56;;;1.29;100.00
48790;BME280;41718;51.980;5.734;2022-11-20T22:11:03;100153.75;;;1.32;100.00
48790;BME280;41718;51.980;5.734;2022-11-20T22:16:05;100159.03;;;1.37;100.00
48790;BME280;41718;51.980;5.734;2022-11-20T22:21:06;100176.91;;;1.38;100.00
48790;BME280;41718;51.980;5.734;2022-11-20T22:26:10;100175.88;;;1.33;100.00
48790;BME280;41718;51.980;5.734;2022-11-20T22:31:12;100185.38;;;1.37;100.00
48790;BME280;41718;51.980;5.734;2022-11-20T22:36:19;100181.00;;;1.35;100.00
48790;BME280;41718;51.980;5.734;2022-11-20T22:41:27;100194.56;;;1.33;100.00
48790;BME280;41718;51.980;5.734;2022-11-20T22:46:32;100202.81;;;1.28;100.00
48790;BME280;41718;51.980;5.734;2022-11-20T22:51:36;100213.00;;;1.28;100.00
48790;BME280;41718;51.980;5.734;2022-11-20T22:56:39;100228.91;;;1.22;100.00
48790;BME280;41718;51.980;5.734;2022-11-20T23:01:41;100221.41;;;1.25;100.00
48790;BME280;41718;51.980;5.734;2022-11-20T23:06:42;100221.53;;;1.28;100.00
48790;BME280;41718;51.980;5.734;2022-11-20T23:11:44;100229.78;;;1.23;100.00
48790;BME280;41718;51.980;5.734;2022-11-20T23:16:45;100228.97;;;1.24;100.00
48790;BME280;41718;51.980;5.734;2022-11-20T23:21:47;100231.06;;;1.13;100.00
48790;BME280;41718;51.980;5.734;2022-11-20T23:26:48;100235.47;;;1.17;100.00
48790;BME280;41718;51.980;5.734;2022-11-20T23:31:50;100232.81;;;1.14;100.00
48790;BME280;41718;51.980;5.734;2022-11-20T23:36:51;100245.69;;;1.17;100.00
48790;BME280;41718;51.980;5.734;2022-11-20T23:41:53;100247.34;;;1.17;100.00
48790;BME280;41718;51.980;5.734;2022-11-20T23:46:54;100245.63;;;1.16;100.00
48790;BME280;41718;51.980;5.734;2022-11-20T23:51:55;100243.94;;;1.16;100.00
48790;BME280;41718;51.980;5.734;2022-11-20T23:56:57;100248.22;;;1.17;100.00
